createdAt,value
2022-12-03T00:01:22.611Z,99020.19
2022-12-03T00:03:51.114Z,99021.19
2022-12-03T00:06:19.538Z,99020.19
2022-12-03T00:08:48.048Z,99024.72
2022-12-03T00:11:16.544Z,99022.03
2022-12-03T00:13:45.577Z,99013.13
2022-12-03T00:16:14.157Z,99022.88
2022-12-03T00:18:43.945Z,99024.72
2022-12-03T00:21:12.358Z,99023.06
2022-12-03T00:23:42.434Z,99020.38
2022-12-03T00:26:11.052Z,99020.38
2022-12-03T00:28:39.371Z,99006.94
2022-12-03T00:31:07.885Z,99010.44
2022-12-03T00:33:36.215Z,99021.19
2022-12-03T00:36:07.050Z,99013.13
2022-12-03T00:38:35.524Z,99009.75
2022-12-03T00:41:03.961Z,99006.94
2022-12-03T00:43:32.324Z,98990.81
2022-12-03T00:46:01.148Z,98994.47
2022-12-03T00:48:29.683Z,99006.06
2022-12-03T00:50:58.063Z,98996.31
2022-12-03T00:53:28.065Z,98995.31
2022-12-03T00:55:56.425Z,98993.50
2022-12-03T00:58:24.972Z,98995.50
2022-12-03T01:00:53.388Z,99008.94
2022-12-03T01:03:21.761Z,99000.88
2022-12-03T01:05:50.170Z,99001.84
2022-12-03T01:08:18.762Z,99004.53
2022-12-03T01:10:48.762Z,99009.91
2022-12-03T01:13:17.216Z,99007.22
2022-12-03T01:15:45.799Z,99008.09
2022-12-03T01:18:14.250Z,99000.88
2022-12-03T01:20:42.679Z,98995.50
2022-12-03T01:23:11.184Z,98998.19
2022-12-03T01:25:39.515Z,98990.13
2022-12-03T01:28:09.435Z,98982.88
2022-12-03T01:30:58.128Z,98983.91
2022-12-03T01:33:25.620Z,98987.44
2022-12-03T01:35:54.066Z,98977.66
2022-12-03T01:38:22.483Z,98976.81
2022-12-03T01:40:50.869Z,98992.81
2022-12-03T01:43:20.704Z,98992.81
2022-12-03T01:45:49.293Z,99004.38
2022-12-03T01:48:17.702Z,99000.03
2022-12-03T01:50:46.104Z,99005.41
2022-12-03T01:53:18.367Z,98994.66
2022-12-03T01:55:48.771Z,98997.34
2022-12-03T01:58:17.737Z,98979.50
2022-12-03T02:00:47.461Z,98990.13
2022-12-03T02:03:19.773Z,98981.22
2022-12-03T02:05:48.187Z,98983.03
2022-12-03T02:08:31.029Z,98985.72
2022-12-03T02:10:59.913Z,98986.59
2022-12-03T02:13:29.064Z,98998.31
2022-12-03T02:15:58.761Z,98990.25
2022-12-03T02:18:27.320Z,98994.78
2022-12-03T02:21:02.067Z,98992.13
2022-12-03T02:23:34.834Z,98999.34
2022-12-03T02:26:04.659Z,98997.47
2022-12-03T02:28:33.117Z,98998.31
2022-12-03T02:31:01.514Z,99004.72
2022-12-03T02:33:30.027Z,99014.44
2022-12-03T02:36:03.279Z,98999.34
2022-12-03T02:38:33.120Z,99007.41
2022-12-03T02:41:05.756Z,98994.94
2022-12-03T02:43:33.271Z,99002.03
2022-12-03T02:46:02.828Z,98991.28
2022-12-03T02:48:33.685Z,98988.59
2022-12-03T02:51:04.892Z,98996.66
2022-12-03T02:53:36.185Z,98992.94
2022-12-03T02:56:06.760Z,98984.19
2022-12-03T02:58:35.133Z,98987.75
2022-12-03T03:01:03.923Z,98987.75
2022-12-03T03:03:32.637Z,98991.28
2022-12-03T03:06:01.364Z,98981.50
2022-12-03T03:08:29.900Z,98990.44
2022-12-03T03:10:58.279Z,98989.56
2022-12-03T03:13:27.960Z,98980.66
2022-12-03T03:15:56.487Z,98989.56
2022-12-03T03:18:24.950Z,98989.56
2022-12-03T03:20:53.733Z,98995.81
2022-12-03T03:23:23.792Z,98986.88
2022-12-03T03:25:55.788Z,98983.38
2022-12-03T03:28:24.140Z,98987.75
2022-12-03T03:30:54.115Z,98986.88
2022-12-03T03:33:22.544Z,98989.56
2022-12-03T03:35:51.000Z,98982.38
2022-12-03T03:38:19.959Z,98983.38
2022-12-03T03:40:48.887Z,98978.81
2022-12-03T03:43:17.216Z,98974.47
2022-12-03T03:45:45.757Z,98976.13
2022-12-03T03:48:15.537Z,98980.66
2022-12-03T03:50:43.981Z,98984.19
2022-12-03T03:53:12.529Z,98987.75
2022-12-03T03:55:40.969Z,98979.00
2022-12-03T03:58:09.300Z,98979.84
2022-12-03T04:00:37.883Z,98986.88
2022-12-03T04:03:06.401Z,98981.50
2022-12-03T04:05:36.215Z,98983.38
2022-12-03T04:08:04.909Z,98985.22
2022-12-03T04:10:50.795Z,98997.81
2022-12-03T04:13:19.285Z,98987.06
2022-12-03T04:15:47.621Z,98987.91
2022-12-03T04:18:33.639Z,98996.78
2022-12-03T04:21:17.381Z,98990.59
2022-12-03T04:23:45.809Z,98990.59
2022-12-03T04:26:31.857Z,98989.75
2022-12-03T04:29:00.266Z,98990.59
2022-12-03T04:31:46.442Z,98988.72
2022-12-03T04:34:32.215Z,98989.75
2022-12-03T04:37:02.036Z,98990.59
2022-12-03T04:39:30.451Z,98981.69
2022-12-03T04:42:00.738Z,98983.53
2022-12-03T04:44:36.318Z,98983.53
2022-12-03T04:47:07.937Z,98988.91
2022-12-03T04:49:36.936Z,98995.97
2022-12-03T04:52:06.859Z,98988.72
2022-12-03T04:54:35.488Z,98986.22
2022-12-03T04:57:04.521Z,98980.00
2022-12-03T04:59:33.008Z,98978.16
2022-12-03T05:02:01.558Z,98971.97
2022-12-03T05:04:30.078Z,98968.25
2022-12-03T05:06:58.490Z,98966.41
2022-12-03T05:09:28.263Z,98960.34
2022-12-03T05:11:56.821Z,98972.78
2022-12-03T05:14:25.162Z,98966.59
2022-12-03T05:16:53.587Z,98973.63
2022-12-03T05:19:42.076Z,98971.97
2022-12-03T05:22:10.434Z,98973.78
2022-12-03T05:24:40.417Z,98972.94
2022-12-03T05:27:08.834Z,98966.59
2022-12-03T05:29:37.374Z,98969.25
2022-12-03T05:32:06.226Z,98966.59
2022-12-03T05:34:34.677Z,98955.84
2022-12-03T05:37:03.113Z,98960.34
2022-12-03T05:39:31.620Z,98954.97
2022-12-03T05:42:18.891Z,98964.88
2022-12-03T05:44:47.398Z,98971.09
2022-12-03T05:47:15.836Z,98971.09
2022-12-03T05:49:44.312Z,98970.25
2022-12-03T05:52:12.734Z,98976.47
2022-12-03T05:54:41.059Z,98973.78
2022-12-03T05:57:10.819Z,98970.25
2022-12-03T05:59:39.177Z,98976.47
2022-12-03T06:02:07.580Z,98975.63
2022-12-03T06:04:36.519Z,98978.31
2022-12-03T06:07:08.514Z,98975.63
2022-12-03T06:09:39.476Z,98985.53
2022-12-03T06:12:09.853Z,98979.16
2022-12-03T06:14:39.669Z,98975.63
2022-12-03T06:17:08.046Z,98973.94
2022-12-03T06:19:36.446Z,98972.94
2022-12-03T06:22:04.815Z,98974.78
2022-12-03T06:24:33.315Z,98980.16
2022-12-03T06:27:01.668Z,98986.53
2022-12-03T06:29:30.046Z,98984.69
2022-12-03T06:31:59.966Z,98988.38
2022-12-03T06:34:28.379Z,98989.22
2022-12-03T06:36:56.708Z,99004.34
2022-12-03T06:39:25.129Z,98999.81
2022-12-03T06:41:53.464Z,99001.66
2022-12-03T06:44:21.845Z,98994.44
2022-12-03T06:46:50.492Z,98999.97
2022-12-03T06:49:20.202Z,99005.34
2022-12-03T06:51:48.617Z,99003.50
2022-12-03T06:54:17.129Z,99017.78
2022-12-03T06:56:47.192Z,99014.25
2022-12-03T06:59:15.756Z,99016.94
2022-12-03T07:01:44.648Z,99016.94
2022-12-03T07:04:13.097Z,99013.41
2022-12-03T07:06:42.912Z,99016.09
2022-12-03T07:09:11.398Z,99014.25
2022-12-03T07:11:42.831Z,99013.22
2022-12-03T07:14:12.137Z,98999.97
2022-12-03T07:16:43.447Z,99000.81
2022-12-03T07:19:12.299Z,99006.19
2022-12-03T07:21:42.050Z,99008.19
2022-12-03T07:24:10.602Z,99017.09
2022-12-03T07:26:39.031Z,99007.88
2022-12-03T07:29:07.432Z,99013.22
2022-12-03T07:31:35.854Z,99008.69
2022-12-03T07:34:04.178Z,99021.16
2022-12-03T07:36:32.790Z,99014.63
2022-12-03T07:39:02.475Z,99014.63
2022-12-03T07:41:30.948Z,99013.75
2022-12-03T07:43:59.462Z,99009.25
2022-12-03T07:46:27.878Z,99016.28
2022-12-03T07:48:56.326Z,99020.84
2022-12-03T07:51:30.472Z,99011.75
2022-12-03T07:54:00.392Z,99010.78
2022-12-03T07:56:30.168Z,99012.44
2022-12-03T07:58:58.622Z,99011.59
2022-12-03T08:01:27.114Z,99005.41
2022-12-03T08:03:55.663Z,99000.69
2022-12-03T08:06:24.043Z,99006.06
2022-12-03T08:08:52.420Z,99002.38
2022-12-03T08:11:20.829Z,99017.69
2022-12-03T08:13:50.639Z,99010.59
2022-12-03T08:16:20.848Z,99003.56
2022-12-03T08:18:49.896Z,99002.38
2022-12-03T08:21:19.584Z,99001.22
2022-12-03T08:23:48.056Z,98996.50
2022-12-03T08:26:23.513Z,98996.69
2022-12-03T08:28:53.359Z,99002.56
2022-12-03T08:31:27.974Z,98995.53
2022-12-03T08:34:07.937Z,98996.69
2022-12-03T08:36:36.884Z,99004.91
2022-12-03T08:39:24.087Z,99011.28
2022-12-03T08:42:14.015Z,99020.38
2022-12-03T08:44:43.906Z,99010.59
2022-12-03T08:47:17.326Z,99019.50
2022-12-03T08:49:48.136Z,99021.72
2022-12-03T08:52:18.128Z,99016.00
2022-12-03T08:54:48.294Z,99013.19
2022-12-03T08:57:26.618Z,99026.63
2022-12-03T09:00:00.018Z,99028.88
2022-12-03T09:02:32.416Z,99023.31
2022-12-03T09:05:01.890Z,99018.97
2022-12-03T09:07:30.436Z,99032.06
2022-12-03T09:09:58.824Z,99041.66
2022-12-03T09:12:27.194Z,99036.44
2022-12-03T09:14:57.138Z,99031.22
2022-12-03T09:17:25.479Z,99034.75
2022-12-03T09:19:54.602Z,99021.81
2022-12-03T09:22:23.477Z,99025.34
2022-12-03T09:24:52.364Z,99029.19
2022-12-03T09:27:22.864Z,99025.34
2022-12-03T09:29:51.324Z,99029.91
2022-12-03T09:32:21.217Z,99025.84
2022-12-03T09:34:49.671Z,99025.69
2022-12-03T09:37:18.237Z,99029.91
2022-12-03T09:39:46.628Z,99025.53
2022-12-03T09:42:15.339Z,99028.69
2022-12-03T09:44:43.773Z,99024.00
2022-12-03T09:47:12.202Z,99028.53
2022-12-03T09:49:41.890Z,99022.84
2022-12-03T09:52:12.410Z,99021.31
2022-12-03T09:54:46.878Z,99017.09
2022-12-03T09:57:16.131Z,99017.25
2022-12-03T09:59:44.448Z,99018.38
2022-12-03T10:02:17.033Z,99026.00
2022-12-03T10:04:46.982Z,99016.94
2022-12-03T10:07:15.490Z,99010.56
2022-12-03T10:09:43.888Z,99013.94
2022-12-03T10:12:13.222Z,99009.56
2022-12-03T10:14:41.764Z,99004.19
2022-12-03T10:17:11.930Z,98997.13
2022-12-03T10:19:42.734Z,98997.97
2022-12-03T10:22:12.387Z,99000.50
2022-12-03T10:24:40.864Z,99010.38
2022-12-03T10:27:22.869Z,98999.81
2022-12-03T10:29:58.552Z,99004.78
2022-12-03T10:32:27.774Z,98997.75
2022-12-03T10:35:10.156Z,98988.81
2022-12-03T10:37:57.269Z,98985.28
2022-12-03T10:40:26.764Z,98996.03
2022-12-03T10:43:12.479Z,98995.22
2022-12-03T10:45:40.995Z,98990.66
2022-12-03T10:48:14.443Z,98992.66
2022-12-03T10:50:51.125Z,98999.75
2022-12-03T10:53:21.758Z,98987.28
2022-12-03T10:55:52.478Z,98984.59
2022-12-03T10:58:23.328Z,98982.94
2022-12-03T11:00:53.213Z,98979.41
2022-12-03T11:03:24.089Z,98974.88
2022-12-03T11:05:52.644Z,98974.88
2022-12-03T11:08:24.046Z,98972.19
2022-12-03T11:10:59.714Z,98978.41
2022-12-03T11:13:45.438Z,98978.25
2022-12-03T11:16:14.536Z,98985.28
2022-12-03T11:19:02.773Z,98977.41
2022-12-03T11:21:31.362Z,98974.72
2022-12-03T11:24:21.705Z,98976.53
2022-12-03T11:27:22.107Z,98963.97
2022-12-03T11:30:01.567Z,98965.78
2022-12-03T11:33:22.619Z,98972.03
2022-12-03T11:36:16.327Z,98970.19
2022-12-03T11:38:56.081Z,98959.59
2022-12-03T11:41:31.792Z,98963.09
2022-12-03T11:44:30.101Z,98953.22
2022-12-03T11:47:02.628Z,98955.91
2022-12-03T11:49:38.140Z,98943.31
2022-12-03T11:52:23.047Z,98949.66
2022-12-03T11:54:54.442Z,98946.16
2022-12-03T11:57:36.715Z,98944.63
2022-12-03T12:00:17.410Z,98944.47
2022-12-03T12:02:46.101Z,98943.47
2022-12-03T12:05:27.916Z,98950.84
2022-12-03T12:07:56.481Z,98942.63
2022-12-03T12:10:45.636Z,98942.63
2022-12-03T12:13:52.954Z,98940.94
2022-12-03T12:16:55.080Z,98941.78
2022-12-03T12:19:41.317Z,98945.47
2022-12-03T12:22:22.532Z,98942.78
2022-12-03T12:24:52.471Z,98936.56
2022-12-03T12:27:23.062Z,98937.41
2022-12-03T12:29:57.572Z,98933.72
2022-12-03T12:32:28.405Z,98923.97
2022-12-03T12:35:00.887Z,98932.72
2022-12-03T12:37:35.202Z,98929.88
2022-12-03T12:40:08.095Z,98923.34
2022-12-03T12:42:37.843Z,98925.88
2022-12-03T12:45:18.108Z,98924.06
2022-12-03T12:47:51.341Z,98919.66
2022-12-03T12:50:20.586Z,98919.66
2022-12-03T12:52:54.323Z,98921.38
2022-12-03T12:55:23.909Z,98922.19
2022-12-03T12:57:52.597Z,98923.19
2022-12-03T13:00:24.212Z,98920.66
2022-12-03T13:02:55.592Z,98922.34
2022-12-03T13:05:27.725Z,98923.19
2022-12-03T13:07:56.238Z,98930.41
2022-12-03T13:10:39.705Z,98927.88
2022-12-03T13:13:26.712Z,98936.09
2022-12-03T13:16:01.244Z,98937.50
2022-12-03T13:18:42.564Z,98925.88
2022-12-03T13:21:25.911Z,98923.88
2022-12-03T13:23:55.952Z,98939.31
2022-12-03T13:26:36.515Z,98937.75
2022-12-03T13:29:14.885Z,98934.09
2022-12-03T13:31:48.250Z,98933.09
2022-12-03T13:34:20.764Z,98933.25
2022-12-03T13:36:55.409Z,98934.91
2022-12-03T13:39:29.769Z,98928.72
2022-12-03T13:42:15.721Z,98930.25
2022-12-03T13:44:47.152Z,98936.63
2022-12-03T13:47:19.930Z,98932.22
2022-12-03T13:49:52.234Z,98939.47
2022-12-03T13:52:22.348Z,98938.63
2022-12-03T13:54:52.785Z,98924.31
2022-12-03T13:57:21.077Z,98927.19
2022-12-03T13:59:49.424Z,98931.72
2022-12-03T14:02:19.483Z,98924.50
2022-12-03T14:04:47.919Z,98929.03
2022-12-03T14:07:16.382Z,98919.13
2022-12-03T14:09:44.870Z,98912.91
2022-12-03T14:12:30.878Z,98915.41
2022-12-03T14:14:59.352Z,98911.91
2022-12-03T14:17:29.657Z,98903.84
2022-12-03T14:19:57.999Z,98908.19
2022-12-03T14:22:26.514Z,98906.53
2022-12-03T14:24:55.039Z,98903.97
2022-12-03T14:27:24.826Z,98910.03
2022-12-03T14:29:54.007Z,98907.53
2022-12-03T14:32:22.587Z,98909.22
2022-12-03T14:34:52.432Z,98918.13
2022-12-03T14:37:20.864Z,98920.78
2022-12-03T14:39:49.390Z,98905.69
2022-12-03T14:42:18.392Z,98928.84
2022-12-03T14:44:48.099Z,98928.03
2022-12-03T14:47:17.973Z,98930.72
2022-12-03T14:49:46.509Z,98921.81
2022-12-03T14:52:16.391Z,98926.50
2022-12-03T14:54:44.781Z,98930.84
2022-12-03T14:57:14.064Z,98927.34
2022-12-03T14:59:42.649Z,98931.88
2022-12-03T15:02:11.331Z,98928.34
2022-12-03T15:04:40.021Z,98930.19
2022-12-03T15:07:08.709Z,98934.56
2022-12-03T15:09:38.645Z,98930.19
2022-12-03T15:12:08.344Z,98928.34
2022-12-03T15:14:36.730Z,98922.78
2022-12-03T15:17:05.248Z,98927.34
2022-12-03T15:19:33.860Z,98918.28
2022-12-03T15:22:02.291Z,98925.34
2022-12-03T15:24:30.833Z,98934.56
2022-12-03T15:27:00.778Z,98933.53
2022-12-03T15:29:29.175Z,98930.72
2022-12-03T15:31:59.369Z,98935.25
2022-12-03T15:34:27.967Z,98925.34
2022-12-03T15:36:56.288Z,98929.88
2022-12-03T15:39:24.713Z,98933.53
2022-12-03T15:41:53.188Z,98933.53
2022-12-03T15:44:22.929Z,98936.91
2022-12-03T15:46:51.391Z,98927.19
2022-12-03T15:49:20.072Z,98929.69
2022-12-03T15:51:48.449Z,98935.06
2022-12-03T15:54:16.860Z,98933.41
2022-12-03T15:56:45.438Z,98930.72
2022-12-03T15:59:13.813Z,98936.09
2022-12-03T16:01:43.701Z,98937.75
2022-12-03T16:04:12.201Z,98933.41
2022-12-03T16:06:40.573Z,98928.03
2022-12-03T16:09:09.062Z,98928.03
2022-12-03T16:11:37.535Z,98924.50
2022-12-03T16:14:05.917Z,98933.25
2022-12-03T16:16:34.487Z,98928.72
2022-12-03T16:19:04.482Z,98925.19
2022-12-03T16:21:34.693Z,98933.25
2022-12-03T16:24:03.225Z,98928.72
2022-12-03T16:26:31.749Z,98929.56
2022-12-03T16:29:00.155Z,98927.88
2022-12-03T16:31:28.723Z,98929.56
2022-12-03T16:33:57.150Z,98920.66
2022-12-03T16:36:26.896Z,98925.19
2022-12-03T16:38:55.323Z,98922.50
2022-12-03T16:41:23.749Z,98924.16
2022-12-03T16:43:52.093Z,98920.66
2022-12-03T16:46:26.256Z,98922.50
2022-12-03T16:48:55.376Z,98919.81
2022-12-03T16:51:23.887Z,98911.75
2022-12-03T16:53:53.792Z,98914.44
2022-12-03T16:56:22.116Z,98912.59
2022-12-03T16:58:50.713Z,98922.50
2022-12-03T17:01:19.195Z,98917.97
2022-12-03T17:03:47.605Z,98928.72
2022-12-03T17:06:16.075Z,98912.72
2022-12-03T17:08:49.046Z,98921.63
2022-12-03T17:11:19.698Z,98914.28
2022-12-03T17:13:48.174Z,98919.81
2022-12-03T17:16:16.671Z,98910.88
2022-12-03T17:18:45.156Z,98911.91
2022-12-03T17:21:13.480Z,98901.97
2022-12-03T17:23:41.904Z,98900.13
2022-12-03T17:26:10.332Z,98892.94
2022-12-03T17:28:40.074Z,98890.25
2022-12-03T17:31:08.437Z,98889.38
2022-12-03T17:33:36.946Z,98893.91
2022-12-03T17:36:06.161Z,98888.41
2022-12-03T17:38:39.078Z,98886.56
2022-12-03T17:41:08.458Z,98892.78
2022-12-03T17:43:37.942Z,98895.47
2022-12-03T17:46:08.075Z,98891.91
2022-12-03T17:48:36.564Z,98895.47
2022-12-03T17:51:05.195Z,98893.63
2022-12-03T17:53:33.543Z,98900.84
2022-12-03T17:56:02.099Z,98898.16
2022-12-03T17:58:30.440Z,98900.84
2022-12-03T18:01:02.807Z,98894.94
2022-12-03T18:03:33.061Z,98880.03
2022-12-03T18:06:01.458Z,98880.03
2022-12-03T18:08:29.848Z,98884.56
2022-12-03T18:10:58.273Z,98888.25
2022-12-03T18:13:26.900Z,98883.84
2022-12-03T18:15:55.667Z,98880.03
2022-12-03T18:18:24.104Z,98876.34
2022-12-03T18:20:54.341Z,98874.47
2022-12-03T18:23:22.955Z,98870.97
2022-12-03T18:25:51.459Z,98873.00
2022-12-03T18:28:19.857Z,98868.47
2022-12-03T18:30:52.499Z,98881.56
2022-12-03T18:33:23.393Z,98865.75
2022-12-03T18:35:55.399Z,98871.28
2022-12-03T18:38:24.097Z,98866.75
2022-12-03T18:40:52.781Z,98860.53
2022-12-03T18:43:21.151Z,98862.25
2022-12-03T18:45:49.867Z,98873.00
2022-12-03T18:48:19.571Z,98869.09
2022-12-03T18:50:48.052Z,98868.59
2022-12-03T18:53:19.392Z,98866.41
2022-12-03T18:55:48.085Z,98871.13
2022-12-03T18:58:16.463Z,98866.91
2022-12-03T19:00:45.734Z,98857.31
2022-12-03T19:03:14.188Z,98863.38
2022-12-03T19:05:42.825Z,98866.22
2022-12-03T19:08:14.863Z,98869.75
2022-12-03T19:10:45.165Z,98868.22
2022-12-03T19:13:13.479Z,98864.69
2022-12-03T19:15:41.867Z,98863.69
2022-12-03T19:18:10.351Z,98868.66
2022-12-03T19:20:41.863Z,98869.53
2022-12-03T19:23:10.503Z,98861.28
2022-12-03T19:25:39.100Z,98868.19
2022-12-03T19:28:09.006Z,98868.19
2022-12-03T19:30:37.374Z,98858.13
2022-12-03T19:33:05.851Z,98862.66
2022-12-03T19:35:39.644Z,98872.41
2022-12-03T19:38:09.425Z,98869.91
2022-12-03T19:40:37.796Z,98871.72
2022-12-03T19:43:06.251Z,98870.03
2022-12-03T19:45:36.994Z,98874.41
2022-12-03T19:48:05.761Z,98878.44
2022-12-03T19:50:34.243Z,98877.59
2022-12-03T19:53:03.027Z,98869.00
2022-12-03T19:55:31.497Z,98883.44
2022-12-03T19:57:59.903Z,98877.38
2022-12-03T20:00:28.323Z,98873.88
2022-12-03T20:02:58.091Z,98874.00
2022-12-03T20:05:31.795Z,98882.75
2022-12-03T20:08:01.856Z,98872.00
2022-12-03T20:10:30.245Z,98873.03
2022-12-03T20:12:58.750Z,98875.53
2022-12-03T20:15:27.222Z,98872.56
2022-12-03T20:17:57.028Z,98870.84
2022-12-03T20:20:25.412Z,98867.31
2022-12-03T20:22:54.110Z,98872.00
2022-12-03T20:25:22.522Z,98868.34
2022-12-03T20:27:52.197Z,98870.84
2022-12-03T20:30:20.766Z,98877.25
2022-12-03T20:32:49.113Z,98865.66
2022-12-03T20:35:18.977Z,98868.34
2022-12-03T20:37:47.467Z,98863.81
2022-12-03T20:40:16.342Z,98860.28
2022-12-03T20:42:48.768Z,98854.91
2022-12-03T20:45:17.584Z,98859.28
2022-12-03T20:47:45.962Z,98856.72
2022-12-03T20:50:14.441Z,98852.38
2022-12-03T20:53:03.246Z,98866.63
2022-12-03T20:55:32.980Z,98863.81
2022-12-03T20:58:01.526Z,98873.03
2022-12-03T21:00:30.008Z,98864.78
2022-12-03T21:02:58.471Z,98864.78
2022-12-03T21:05:27.220Z,98867.66
2022-12-03T21:07:57.076Z,98866.63
2022-12-03T21:10:44.836Z,98869.31
2022-12-03T21:13:15.003Z,98872.00
2022-12-03T21:15:43.843Z,98871.19
2022-12-03T21:18:14.453Z,98874.00
2022-12-03T21:20:43.033Z,98882.06
2022-12-03T21:23:12.916Z,98885.63
2022-12-03T21:25:41.912Z,98885.78
2022-12-03T21:28:10.899Z,98876.69
2022-12-03T21:30:40.156Z,98875.03
2022-12-03T21:33:08.694Z,98873.34
2022-12-03T21:35:37.686Z,98869.66
2022-12-03T21:40:35.879Z,98869.81
2022-12-03T21:45:32.553Z,98867.44
2022-12-03T21:48:01.131Z,98875.50
2022-12-03T21:50:29.740Z,98869.28
2022-12-03T21:52:58.093Z,98869.16
2022-12-03T21:55:26.511Z,98863.78
2022-12-03T21:57:56.411Z,98865.78
2022-12-03T22:00:25.075Z,98874.66
2022-12-03T22:02:53.600Z,98871.84
2022-12-03T22:05:22.185Z,98866.47
2022-12-03T22:07:50.573Z,98863.78
2022-12-03T22:10:19.204Z,98859.06
2022-12-03T22:12:47.647Z,98862.59
2022-12-03T22:15:19.427Z,98859.06
2022-12-03T22:17:48.228Z,98858.06
2022-12-03T22:20:16.612Z,98856.38
2022-12-03T22:22:44.977Z,98842.78
2022-12-03T22:25:13.370Z,98840.25
2022-12-03T22:27:41.761Z,98851.88
2022-12-03T22:30:10.961Z,98851.88
2022-12-03T22:35:09.935Z,98853.03
2022-12-03T22:37:38.264Z,98847.34
2022-12-03T22:40:08.664Z,98846.50
2022-12-03T22:42:37.031Z,98845.47
2022-12-03T22:45:06.758Z,98843.81
2022-12-03T22:47:35.313Z,98846.50
2022-12-03T22:50:05.651Z,98848.16
2022-12-03T22:52:34.039Z,98841.97
2022-12-03T22:55:02.574Z,98840.25
2022-12-03T22:57:30.907Z,98833.06
2022-12-03T22:59:59.465Z,98830.38
2022-12-03T23:04:56.900Z,98837.56
2022-12-03T23:07:26.796Z,98836.59
2022-12-03T23:09:55.571Z,98830.38
2022-12-03T23:12:24.135Z,98830.38
2022-12-03T23:14:55.212Z,98832.19
2022-12-03T23:19:52.141Z,98825.00
2022-12-03T23:22:20.806Z,98823.31
2022-12-03T23:24:50.630Z,98826.66
2022-12-03T23:27:19.047Z,98829.38
2022-12-03T23:29:47.364Z,98825.00
2022-12-03T23:32:15.862Z,98818.63
2022-12-03T23:34:44.260Z,98814.25
2022-12-03T23:37:12.726Z,98813.25
2022-12-03T23:39:41.491Z,98814.25
2022-12-03T23:42:11.248Z,98811.56
2022-12-03T23:44:39.633Z,98807.88
2022-12-03T23:47:08.043Z,98811.56
2022-12-03T23:49:36.752Z,98803.50
2022-12-03T23:52:05.183Z,98809.72
2022-12-03T23:54:33.650Z,98805.34
2022-12-03T23:57:02.019Z,98814.25
2022-12-03T23:59:31.768Z,98815.09
